Time;durP1;ratioP1;P1;durP2;ratioP2;P2;SDS_P1;SDS_P2;PMS_P1;PMS_P2;Temp;Humidity;BMP_temperature;BMP_pressure;BME280_temperature;BME280_humidity;BME280_pressure;Samples;Min_cycle;Max_cycle;Signal;HPM_P1;HPM_P2
2020/12/18 00:04:33;;;;;;;53.75;28.75;;;;;;;3.01;73.23;100957.72;10545450;28;20097;-69
2020/12/18 00:09:35;;;;;;;60.35;30.38;;;;;;;2.82;73.28;100959.22;10526610;28;20444;-69
2020/12/18 00:14:37;;;;;;;57.85;29.58;;;;;;;2.80;73.76;100962.66;10527278;28;20040;-69
2020/12/18 00:19:38;;;;;;;60.47;32.30;;;;;;;2.55;73.80;100962.25;10526451;28;20394;-69
2020/12/18 00:24:41;;;;;;;51.72;29.50;;;;;;;2.76;73.52;100957.41;10544328;28;20044;-69
2020/12/18 00:29:42;;;;;;;56.85;29.52;;;;;;;2.91;73.01;100961.94;10544262;28;20047;-69
2020/12/18 00:34:43;;;;;;;57.88;30.63;;;;;;;2.44;73.34;100961.25;10544015;28;20074;-70
2020/12/18 00:39:44;;;;;;;65.88;31.67;;;;;;;2.74;73.60;100972.06;10545102;28;20107;-69
2020/12/18 00:44:45;;;;;;;48.85;28.92;;;;;;;2.72;73.04;100968.59;10544873;28;20048;-69
2020/12/18 00:49:47;;;;;;;46.03;27.60;;;;;;;2.37;73.34;100969.75;10531681;28;20056;-71
2020/12/18 00:54:48;;;;;;;57.08;30.58;;;;;;;2.32;73.49;100977.47;10533726;28;20044;-69
2020/12/18 00:59:55;;;;;;;57.65;30.10;;;;;;;1.93;74.15;100981.09;10541509;22;20048;-65
2020/12/18 01:05:17;;;;;;;58.30;29.20;;;;;;;1.93;74.23;100982.81;10547507;28;20131;-65
2020/12/18 01:10:19;;;;;;;54.90;29.52;;;;;;;1.99;73.51;100982.94;10528964;28;20527;-64
2020/12/18 01:15:21;;;;;;;57.45;29.90;;;;;;;1.78;73.93;100986.00;10529286;28;20045;-65
2020/12/18 01:20:22;;;;;;;52.35;28.98;;;;;;;1.95;73.72;100984.63;10528722;28;20105;-64
2020/12/18 01:25:24;;;;;;;60.38;30.52;;;;;;;1.68;74.03;100992.75;10528927;28;20043;-65
2020/12/18 01:30:26;;;;;;;63.05;29.95;;;;;;;1.76;74.61;100992.88;10546473;28;20560;-65
2020/12/18 01:35:29;;;;;;;59.35;30.58;;;;;;;1.95;73.37;101000.16;10545840;28;20040;-66
2020/12/18 01:40:37;;;;;;;61.33;30.38;;;;;;;1.67;74.15;100998.75;10527409;28;20071;-65
2020/12/18 01:45:42;;;;;;;62.78;29.52;;;;;;;1.54;74.62;100985.50;10526801;28;20064;-65
2020/12/18 01:50:45;;;;;;;66.18;30.02;;;;;;;1.47;74.76;100985.41;10526845;28;20075;-66
2020/12/18 01:55:49;;;;;;;57.72;29.27;;;;;;;1.32;74.49;100982.47;10525958;28;20136;-67
2020/12/18 02:00:51;;;;;;;58.03;30.08;;;;;;;1.38;74.83;100984.34;10524890;28;20108;-66
2020/12/18 02:06:11;;;;;;;58.65;29.58;;;;;;;1.57;74.35;100977.81;10544980;28;20078;-64
2020/12/18 02:11:23;;;;;;;69.43;31.93;;;;;;;1.55;74.33;100974.31;10527045;28;20059;-65
2020/12/18 02:16:31;;;;;;;43.07;22.47;;;;;;;1.20;74.84;100984.84;10526631;28;20048;-66
2020/12/18 02:21:37;;;;;;;63.97;28.40;;;;;;;1.06;75.32;100988.81;10525884;28;20505;-65
2020/12/18 02:26:43;;;;;;;68.60;30.03;;;;;;;0.91;75.53;100984.19;10543598;28;20032;-66
2020/12/18 02:31:51;;;;;;;59.72;30.08;;;;;;;1.17;74.56;100989.94;10525646;28;20055;-65
2020/12/18 02:37:05;;;;;;;56.20;29.05;;;;;;;0.93;74.67;100988.56;10525863;28;20131;-65
2020/12/18 02:42:10;;;;;;;50.90;28.83;;;;;;;0.88;74.51;100994.47;10525379;28;20134;-65
2020/12/18 02:47:20;;;;;;;51.38;27.50;;;;;;;0.84;74.20;100996.13;10525851;28;20048;-66
2020/12/18 02:52:22;;;;;;;63.83;29.67;;;;;;;0.81;74.42;100995.19;10524553;28;20044;-65
2020/12/18 02:57:46;;;;;;;61.47;30.25;;;;;;;0.90;74.63;100993.66;10542593;28;20071;-66
2020/12/18 03:02:59;;;;;;;62.67;29.55;;;;;;;0.84;74.99;100992.63;10525514;28;20059;-65
2020/12/18 03:08:04;;;;;;;67.85;31.10;;;;;;;0.50;75.66;101004.78;10524391;28;20036;-64
2020/12/18 03:13:06;;;;;;;73.20;31.65;;;;;;;0.31;75.90;100995.72;10525079;28;20139;-64
2020/12/18 03:18:08;;;;;;;75.43;32.75;;;;;;;0.69;76.54;100998.34;10524825;28;20055;-65
2020/12/18 03:23:12;;;;;;;64.60;30.63;;;;;;;0.63;76.82;101001.66;10523955;28;20082;-66
2020/12/18 03:28:51;;;;;;;62.92;29.20;;;;;;;0.98;74.95;101001.63;10453576;28;20045;-65
2020/12/18 03:33:53;;;;;;;63.50;29.55;;;;;;;0.72;75.17;101011.38;10438649;28;20049;-65
2020/12/18 03:39:06;;;;;;;61.58;28.90;;;;;;;0.63;75.45;101013.72;10437144;28;20045;-65
2020/12/18 03:44:09;;;;;;;55.85;27.58;;;;;;;0.66;75.35;101013.78;10436492;28;20051;-65
2020/12/18 03:49:13;;;;;;;59.55;27.70;;;;;;;0.29;75.16;101009.44;10436249;28;20388;-65
2020/12/18 03:54:29;;;;;;;66.68;29.20;;;;;;;0.31;75.22;101013.81;10421466;28;20506;-65
2020/12/18 03:59:51;;;;;;;56.33;27.05;;;;;;;0.43;74.57;101016.69;10505539;28;20048;-65
2020/12/18 04:05:13;;;;;;;55.60;27.48;;;;;;;0.37;74.73;101013.97;10540710;28;20077;-65
2020/12/18 04:10:16;;;;;;;52.67;27.65;;;;;;;0.40;75.21;101023.50;10521842;28;20051;-65
2020/12/18 04:15:40;;;;;;;63.53;29.10;;;;;;;0.08;75.51;101017.50;10508808;28;20119;-65
2020/12/18 04:20:42;;;;;;;78.00;31.77;;;;;;;0.01;76.28;101020.78;10520704;28;20044;-64
2020/12/18 04:26:05;;;;;;;74.68;30.23;;;;;;;0.09;76.37;101006.31;10522057;28;20059;-64
2020/12/18 04:31:06;;;;;;;59.38;30.02;;;;;;;0.24;75.94;101010.19;10520354;28;20131;-65
2020/12/18 04:36:07;;;;;;;68.25;29.45;;;;;;;0.29;75.44;101009.44;10520573;28;20063;-64
2020/12/18 04:41:19;;;;;;;56.15;27.40;;;;;;;-0.14;75.97;101010.88;10520229;28;20097;-64
2020/12/18 04:46:29;;;;;;;56.50;29.55;;;;;;;-0.08;76.35;101005.88;10521637;28;20131;-65
2020/12/18 04:51:31;;;;;;;59.20;27.55;;;;;;;0.12;75.81;101009.84;10520272;28;20043;-64
2020/12/18 04:56:49;;;;;;;63.88;28.58;;;;;;;0.16;75.26;101021.16;10520738;28;20101;-64
2020/12/18 05:01:57;;;;;;;62.13;27.48;;;;;;;0.06;75.72;101014.00;10520276;28;20067;-66
2020/12/18 05:07:05;;;;;;;61.97;27.20;;;;;;;-0.06;75.14;101017.13;10520146;28;20109;-65
2020/12/18 05:12:14;;;;;;;56.90;27.77;;;;;;;0.20;75.53;101023.00;10539042;28;20119;-64
2020/12/18 05:17:20;;;;;;;62.45;28.98;;;;;;;0.18;75.61;101024.69;10520539;28;20040;-63
2020/12/18 05:22:23;;;;;;;54.38;27.65;;;;;;;-0.15;75.57;101029.81;10520099;28;20051;-66
2020/12/18 05:27:41;;;;;;;67.88;28.92;;;;;;;-0.05;76.19;101034.38;10519078;28;20040;-64
2020/12/18 05:32:53;;;;;;;64.75;28.35;;;;;;;-0.23;76.43;101042.50;10520275;28;20131;-64
2020/12/18 05:38:01;;;;;;;72.25;29.00;;;;;;;-0.24;76.13;101055.38;10527974;28;20063;-65
2020/12/18 05:43:42;;;;;;;52.10;25.65;;;;;;;-0.03;75.17;101056.88;10517845;28;20052;-65
2020/12/18 05:49:06;;;;;;;60.60;26.35;;;;;;;0.05;75.27;101072.59;10504069;28;20055;-68
2020/12/18 05:54:16;;;;;;;58.85;28.85;;;;;;;0.18;75.54;101074.69;10526719;28;20424;-68
2020/12/18 05:59:28;;;;;;;55.65;28.65;;;;;;;0.02;75.20;101064.75;10526200;28;20044;-67
2020/12/18 06:04:38;;;;;;;61.00;28.23;;;;;;;-0.19;75.69;101080.53;10527557;28;20147;-67
2020/12/18 06:09:52;;;;;;;58.25;27.13;;;;;;;-0.35;76.39;101073.19;10527760;28;20050;-68
2020/12/18 06:15:01;;;;;;;64.53;27.35;;;;;;;-0.25;77.27;101077.78;10526034;28;20052;-67
2020/12/18 06:20:03;;;;;;;71.88;29.77;;;;;;;-0.24;77.73;101082.09;10526043;28;20040;-68
2020/12/18 06:25:14;;;;;;;64.65;29.13;;;;;;;0.14;78.14;101093.53;10525686;28;20050;-66
2020/12/18 06:31:21;;;;;;;57.33;25.77;;;;;;;0.19;76.63;101093.66;10542365;28;20043;-67
2020/12/18 06:36:48;;;;;;;54.97;26.02;;;;;;;0.13;77.55;101098.63;10542710;28;20516;-68
2020/12/18 06:42:25;;;;;;;58.70;26.33;;;;;;;0.15;77.69;101095.28;10524879;28;20052;-68
2020/12/18 06:48:27;;;;;;;59.15;27.30;;;;;;;0.69;77.12;101107.03;10442472;28;20056;-68
2020/12/18 06:53:46;;;;;;;69.45;29.27;;;;;;;0.61;77.14;101108.53;10543101;28;20044;-67
2020/12/18 06:59:24;;;;;;;58.60;28.07;;;;;;;0.33;77.68;101105.22;10524776;28;20459;-65
2020/12/18 07:04:26;;;;;;;53.50;26.38;;;;;;;0.31;77.78;101117.25;10542417;28;20040;-66
2020/12/18 07:09:28;;;;;;;48.38;25.67;;;;;;;0.80;76.46;101108.19;10542227;28;20089;-65
2020/12/18 07:14:32;;;;;;;50.13;24.90;;;;;;;0.72;76.53;101108.00;10541761;28;20072;-65
2020/12/18 07:19:41;;;;;;;49.47;26.58;;;;;;;0.69;76.39;101105.31;10523204;28;20044;-65
2020/12/18 07:24:50;;;;;;;53.88;25.95;;;;;;;0.54;77.51;101112.69;10522589;28;20064;-65
2020/12/18 07:29:51;;;;;;;69.22;29.10;;;;;;;0.90;78.13;101114.47;10540659;28;20040;-65
2020/12/18 07:35:08;;;;;;;50.10;26.38;;;;;;;1.25;76.90;101113.59;10540733;28;20048;-65
2020/12/18 07:40:10;;;;;;;53.05;24.75;;;;;;;1.19;77.07;101109.97;10540818;28;20138;-65
2020/12/18 07:45:11;;;;;;;52.50;25.95;;;;;;;1.52;77.10;101115.94;10540111;28;20497;-65
2020/12/18 07:50:13;;;;;;;46.97;24.08;;;;;;;1.67;76.24;101112.78;10539848;28;20084;-65
2020/12/18 07:55:15;;;;;;;37.90;22.35;;;;;;;1.87;76.01;101115.81;10540495;28;20048;-65
2020/12/18 08:00:16;;;;;;;30.52;20.73;;;;;;;1.77;75.56;101117.34;10539132;28;20067;-65
2020/12/18 08:05:24;;;;;;;33.40;22.02;;;;;;;2.00;75.21;101107.44;10539362;28;20075;-65
2020/12/18 08:10:25;;;;;;;33.10;21.42;;;;;;;1.81;75.36;101119.97;10539709;28;20032;-65
2020/12/18 08:15:27;;;;;;;30.33;19.65;;;;;;;1.82;75.60;101125.22;10539470;28;20036;-66
2020/12/18 08:20:28;;;;;;;29.45;21.38;;;;;;;1.98;75.53;101123.81;10539052;28;20056;-64
2020/12/18 08:25:30;;;;;;;27.88;19.40;;;;;;;2.13;75.39;101113.75;10539334;28;20089;-64
2020/12/18 08:30:32;;;;;;;26.33;19.98;;;;;;;2.36;73.84;101108.13;10521073;28;20044;-65
2020/12/18 08:35:34;;;;;;;23.48;18.73;;;;;;;2.59;73.84;101108.53;10539878;28;20063;-64
2020/12/18 08:40:43;;;;;;;23.17;18.52;;;;;;;2.39;74.14;101105.56;10538557;28;20564;-64
2020/12/18 08:45:44;;;;;;;24.27;17.65;;;;;;;2.52;74.04;101105.84;10520667;28;20048;-65
2020/12/18 08:50:46;;;;;;;29.05;18.08;;;;;;;2.59;73.20;101112.00;10538161;28;20040;-65
2020/12/18 08:55:47;;;;;;;26.08;18.05;;;;;;;2.63;73.47;101107.75;10538913;28;20083;-65
2020/12/18 09:00:48;;;;;;;22.95;17.63;;;;;;;2.61;73.14;101104.25;10520775;28;20151;-64
2020/12/18 09:05:49;;;;;;;24.60;17.08;;;;;;;2.59;73.74;101109.41;10538959;28;20044;-64
2020/12/18 09:10:59;;;;;;;22.95;18.10;;;;;;;2.90;73.27;101102.16;10544336;28;20066;-65
2020/12/18 09:16:01;;;;;;;21.80;17.52;;;;;;;3.34;71.58;101091.59;10547271;28;20374;-65
2020/12/18 09:21:14;;;;;;;17.00;15.35;;;;;;;3.37;71.43;101089.91;10546627;28;20051;-65
2020/12/18 09:26:28;;;;;;;19.90;16.23;;;;;;;3.37;71.75;101083.84;10547926;28;20107;-65
2020/12/18 09:31:29;;;;;;;19.42;15.70;;;;;;;3.59;71.03;101080.69;10545944;28;20079;-64
2020/12/18 09:36:31;;;;;;;20.58;15.60;;;;;;;3.54;71.26;101082.31;10545426;28;20032;-66
2020/12/18 09:41:32;;;;;;;19.30;14.77;;;;;;;3.53;71.59;101080.59;10545465;28;20048;-66
2020/12/18 09:46:34;;;;;;;17.38;15.38;;;;;;;3.66;71.20;101081.63;10545439;28;20047;-66
2020/12/18 09:51:36;;;;;;;16.05;14.25;;;;;;;3.72;71.28;101072.19;10545621;28;20052;-65
2020/12/18 09:56:37;;;;;;;16.77;15.15;;;;;;;4.42;69.34;101072.09;10544551;28;20044;-65
2020/12/18 10:01:39;;;;;;;15.55;14.05;;;;;;;4.05;69.95;101066.50;10545355;28;20127;-65
2020/12/18 10:06:40;;;;;;;17.70;14.43;;;;;;;4.54;69.14;101067.00;10525835;28;20190;-64
2020/12/18 10:11:41;;;;;;;14.75;13.35;;;;;;;4.29;69.99;101049.41;10544891;28;20082;-65
2020/12/18 10:16:42;;;;;;;20.60;15.88;;;;;;;4.59;69.35;101042.75;10544248;28;20085;-65
2020/12/18 10:21:43;;;;;;;16.45;14.02;;;;;;;4.58;69.66;101047.09;10544325;28;20052;-66
2020/12/18 10:26:44;;;;;;;14.27;12.77;;;;;;;4.62;69.39;101045.38;10545865;28;20036;-65
2020/12/18 10:31:45;;;;;;;13.88;12.52;;;;;;;4.73;69.48;101041.13;10543863;28;20419;-65
2020/12/18 10:36:55;;;;;;;15.32;12.95;;;;;;;5.09;68.64;101031.81;10543610;28;20044;-65
2020/12/18 10:41:56;;;;;;;14.77;12.80;;;;;;;5.20;68.49;101023.22;10525848;28;20068;-64
2020/12/18 10:46:57;;;;;;;13.90;12.50;;;;;;;5.30;68.16;101024.16;10542652;28;20040;-64
2020/12/18 10:51:59;;;;;;;13.45;12.23;;;;;;;5.49;67.62;101020.78;10542668;28;20052;-65
2020/12/18 10:57:00;;;;;;;13.77;12.48;;;;;;;5.60;67.97;101014.75;10542093;28;20067;-65
2020/12/18 11:02:02;;;;;;;13.48;12.27;;;;;;;6.12;66.10;101018.41;10541967;28;20489;-65
2020/12/18 11:07:04;;;;;;;12.75;11.63;;;;;;;6.29;66.42;101013.22;10542152;28;20417;-65
2020/12/18 11:12:05;;;;;;;12.77;11.20;;;;;;;8.74;59.11;101001.88;10541573;28;20040;-65
2020/12/18 11:17:06;;;;;;;10.07;9.20;;;;;;;12.27;51.10;100990.13;10541212;28;20055;-65
2020/12/18 11:22:07;;;;;;;9.02;8.23;;;;;;;14.67;45.75;100993.06;10541016;28;20107;-65
2020/12/18 11:27:10;;;;;;;8.60;7.80;;;;;;;15.73;44.27;100979.59;10540925;28;20484;-66
2020/12/18 11:32:11;;;;;;;8.07;7.47;;;;;;;17.15;40.39;100971.97;10540740;28;20119;-64
2020/12/18 11:37:13;;;;;;;9.45;8.55;;;;;;;17.55;40.44;100974.63;10541500;28;20105;-66
2020/12/18 11:42:15;;;;;;;9.40;8.52;;;;;;;16.61;41.51;100970.72;10540311;28;20047;-66
2020/12/18 11:47:16;;;;;;;8.63;7.93;;;;;;;16.25;41.40;100958.97;10522547;28;20040;-66
2020/12/18 11:52:17;;;;;;;9.38;8.48;;;;;;;14.85;44.51;100960.66;10540333;28;20455;-66
2020/12/18 11:57:20;;;;;;;9.25;8.45;;;;;;;13.93;50.05;100961.00;10540177;28;20131;-66
2020/12/18 12:02:21;;;;;;;7.05;6.45;;;;;;;12.69;47.15;100964.47;10540508;28;20398;-65
2020/12/18 12:07:22;;;;;;;8.90;6.93;;;;;;;11.43;50.55;100963.84;10539762;28;20063;-66
2020/12/18 12:12:24;;;;;;;8.18;7.30;;;;;;;12.65;48.09;100962.81;10539455;28;20050;-66
2020/12/18 12:17:25;;;;;;;7.97;7.13;;;;;;;11.31;50.60;100956.19;10539771;28;20208;-67
2020/12/18 12:22:26;;;;;;;7.68;6.97;;;;;;;11.37;50.84;100948.16;10539097;28;20075;-65
2020/12/18 12:27:27;;;;;;;9.43;8.38;;;;;;;10.74;51.58;100948.50;10538751;28;20406;-66
2020/12/18 12:32:29;;;;;;;10.55;9.00;;;;;;;8.68;56.25;100963.50;10538626;28;20063;-65
2020/12/18 12:37:30;;;;;;;9.20;8.40;;;;;;;8.15;58.18;100959.53;10538924;28;20036;-66
2020/12/18 12:42:32;;;;;;;11.68;8.93;;;;;;;7.89;59.02;100964.06;10538131;28;20145;-66
2020/12/18 12:47:34;;;;;;;11.93;10.82;;;;;;;7.93;58.95;100963.16;10538025;28;20036;-65
2020/12/18 12:52:35;;;;;;;10.48;9.40;;;;;;;7.81;59.17;100958.88;10539885;28;20052;-66
2020/12/18 12:57:36;;;;;;;11.65;9.88;;;;;;;7.53;60.42;100945.94;10537702;28;20484;-65
2020/12/18 13:02:37;;;;;;;10.48;9.48;;;;;;;7.39;60.42;100947.72;10538300;28;20128;-67
2020/12/18 13:07:38;;;;;;;10.23;9.23;;;;;;;7.46;59.78;100945.97;10538144;28;20048;-66
2020/12/18 13:12:40;;;;;;;12.10;10.90;;;;;;;7.12;60.69;100947.81;10538547;28;20052;-67
2020/12/18 13:17:41;;;;;;;10.73;9.63;;;;;;;7.37;59.69;100941.63;10538549;28;20098;-68
2020/12/18 13:22:42;;;;;;;11.82;10.70;;;;;;;7.04;60.53;100942.63;10538537;28;20079;-67
2020/12/18 13:27:43;;;;;;;12.43;10.30;;;;;;;7.17;59.75;100938.22;10538404;28;20043;-67
2020/12/18 13:32:44;;;;;;;11.73;10.63;;;;;;;6.73;61.27;100942.72;10538676;28;20051;-67
2020/12/18 13:37:46;;;;;;;11.15;10.15;;;;;;;6.53;61.94;100952.28;10537562;28;20493;-66
2020/12/18 13:42:47;;;;;;;12.73;11.52;;;;;;;6.27;62.57;100962.72;10538697;28;20051;-67
2020/12/18 13:47:49;;;;;;;14.88;9.82;;;;;;;6.40;62.02;100959.25;10537367;28;20048;-67
2020/12/18 13:52:50;;;;;;;11.30;10.23;;;;;;;6.41;62.02;100966.22;10538732;28;20094;-67
2020/12/18 13:57:51;;;;;;;9.35;8.23;;;;;;;6.27;62.16;100967.97;10525368;28;20524;-66
2020/12/18 14:02:52;;;;;;;8.57;7.88;;;;;;;6.06;62.26;100977.53;10545248;28;20079;-65
2020/12/18 14:07:53;;;;;;;7.25;6.55;;;;;;;6.10;61.94;100983.59;10544520;28;20068;-67
2020/12/18 14:12:54;;;;;;;9.65;7.07;;;;;;;6.04;61.87;100986.22;10544606;28;20063;-67
2020/12/18 14:17:56;;;;;;;8.13;7.43;;;;;;;5.71;62.89;100989.53;10524546;28;20040;-66
2020/12/18 14:22:57;;;;;;;7.95;7.25;;;;;;;5.66;62.78;100994.75;10521471;28;20099;-66
2020/12/18 14:27:58;;;;;;;8.77;7.93;;;;;;;5.43;63.24;100996.41;10537503;28;20085;-67
2020/12/18 14:33:00;;;;;;;9.77;8.88;;;;;;;5.12;64.16;101008.41;10544051;28;20044;-65
2020/12/18 14:38:01;;;;;;;9.60;8.63;;;;;;;4.96;64.75;101013.53;10525974;28;20488;-67
2020/12/18 14:43:02;;;;;;;12.43;9.43;;;;;;;5.00;64.45;101011.78;10543038;28;20055;-66
2020/12/18 14:48:03;;;;;;;9.32;8.43;;;;;;;4.59;65.42;101017.56;10543685;28;20074;-67
2020/12/18 14:53:05;;;;;;;10.20;9.20;;;;;;;4.71;65.21;101009.00;10542467;28;20139;-68
2020/12/18 14:58:06;;;;;;;11.23;10.15;;;;;;;4.29;66.38;101012.97;10542686;28;20110;-67
2020/12/18 15:03:08;;;;;;;10.38;9.15;;;;;;;4.40;66.02;101013.94;10542766;28;20068;-66
2020/12/18 15:08:09;;;;;;;11.88;10.68;;;;;;;4.21;66.50;101014.63;10541718;28;20105;-68
2020/12/18 15:13:11;;;;;;;11.10;9.98;;;;;;;4.15;66.88;101009.34;10543244;28;20044;-66
2020/12/18 15:18:12;;;;;;;12.05;10.90;;;;;;;3.95;67.42;101011.75;10524508;28;20048;-68
2020/12/18 15:23:14;;;;;;;12.15;10.85;;;;;;;3.88;67.36;101013.41;10541578;28;20477;-67
2020/12/18 15:28:15;;;;;;;15.15;10.57;;;;;;;3.87;67.51;101013.41;10540892;28;20452;-67
2020/12/18 15:33:16;;;;;;;9.95;9.02;;;;;;;3.87;67.26;101013.41;10541051;28;20083;-67
2020/12/18 15:38:17;;;;;;;10.60;9.60;;;;;;;3.84;67.11;101006.44;10541342;28;20036;-67
2020/12/18 15:43:18;;;;;;;11.35;10.35;;;;;;;3.54;67.69;101019.94;10541381;28;20047;-67
2020/12/18 15:48:20;;;;;;;10.93;9.90;;;;;;;3.47;68.18;101008.59;10540614;28;20078;-68
2020/12/18 15:53:21;;;;;;;10.45;9.48;;;;;;;3.21;68.97;101010.84;10541231;28;20405;-67
2020/12/18 15:58:22;;;;;;;11.27;10.27;;;;;;;3.19;69.20;101011.69;10540143;28;20072;-68
2020/12/18 16:03:24;;;;;;;11.82;10.73;;;;;;;3.20;69.46;101013.44;10522508;28;20103;-67
2020/12/18 16:08:26;;;;;;;13.13;11.82;;;;;;;3.21;69.34;101012.59;10522610;28;20068;-66
2020/12/18 16:13:27;;;;;;;13.18;11.98;;;;;;;3.22;69.41;101017.78;10539943;28;20047;-66
2020/12/18 16:18:28;;;;;;;13.68;12.40;;;;;;;3.05;69.86;101024.47;10539006;28;20443;-66
2020/12/18 16:23:29;;;;;;;15.60;14.07;;;;;;;2.90;70.42;101032.03;10540060;28;20044;-67
2020/12/18 16:28:30;;;;;;;14.60;13.07;;;;;;;2.89;70.78;101030.31;10539681;28;20063;-66
2020/12/18 16:33:35;;;;;;;16.45;14.57;;;;;;;2.78;70.99;101025.78;10512979;28;20048;-68
2020/12/18 16:38:36;;;;;;;16.50;14.85;;;;;;;2.67;71.13;101022.16;10538731;28;20047;-66
2020/12/18 16:43:38;;;;;;;16.83;15.13;;;;;;;2.61;71.39;101016.00;10540079;28;20119;-67
2020/12/18 16:48:39;;;;;;;18.20;16.25;;;;;;;2.49;72.02;101022.75;10522296;28;20052;-67
2020/12/18 16:53:41;;;;;;;18.50;15.07;;;;;;;2.55;71.92;101021.97;10540526;28;20048;-67
2020/12/18 16:58:43;;;;;;;19.77;16.50;;;;;;;2.45;72.01;101012.28;10539371;28;20098;-67
2020/12/18 17:03:44;;;;;;;19.05;17.17;;;;;;;2.53;71.71;101010.69;10521207;28;20056;-67
2020/12/18 17:08:47;;;;;;;18.05;16.30;;;;;;;2.49;71.74;101014.94;10539533;28;20494;-67
2020/12/18 17:13:48;;;;;;;18.63;16.83;;;;;;;2.42;71.89;101005.31;10519308;28;20036;-67
2020/12/18 17:18:49;;;;;;;17.95;16.35;;;;;;;2.40;72.11;101008.75;10540143;28;20127;-68
2020/12/18 17:23:50;;;;;;;20.05;18.02;;;;;;;2.40;72.02;101008.75;10540505;28;20036;-68
2020/12/18 17:28:52;;;;;;;19.45;17.42;;;;;;;2.42;71.91;101010.50;10522754;28;20456;-68
2020/12/18 17:33:53;;;;;;;19.08;17.08;;;;;;;2.25;72.48;100999.81;10548011;28;20036;-69
2020/12/18 17:38:54;;;;;;;19.20;17.42;;;;;;;2.24;72.25;100992.91;10547097;28;20063;-66
2020/12/18 17:43:56;;;;;;;24.00;20.27;;;;;;;2.24;72.32;100986.84;10547708;28;20075;-68
2020/12/18 17:48:58;;;;;;;18.58;16.67;;;;;;;2.15;72.36;100992.75;10511886;28;20086;-68
2020/12/18 17:53:59;;;;;;;18.73;16.85;;;;;;;2.09;72.74;100989.19;10546189;28;20044;-68
2020/12/18 17:59:03;;;;;;;20.70;16.42;;;;;;;2.06;72.59;100989.13;10545619;28;20059;-67
2020/12/18 18:04:21;;;;;;;18.13;16.42;;;;;;;2.00;72.53;100985.56;10546065;28;20146;-68
2020/12/18 18:09:22;;;;;;;16.65;14.95;;;;;;;2.00;72.63;100980.38;10526487;28;20056;-67
2020/12/18 18:14:23;;;;;;;16.73;15.30;;;;;;;1.92;73.01;100981.94;10544424;28;20123;-67
2020/12/18 18:19:25;;;;;;;15.75;14.15;;;;;;;1.96;73.07;100975.97;10544424;28;20036;-67
2020/12/18 18:24:26;;;;;;;15.07;13.73;;;;;;;1.92;73.14;100971.59;10543799;28;20455;-67
2020/12/18 18:29:27;;;;;;;15.52;14.13;;;;;;;1.87;73.38;100970.63;10543877;28;20036;-67
2020/12/18 18:34:29;;;;;;;16.25;14.75;;;;;;;1.90;72.91;100973.25;10544119;28;20048;-67
2020/12/18 18:39:30;;;;;;;15.25;13.85;;;;;;;1.88;72.82;100982.75;10543545;28;20036;-67
2020/12/18 18:44:31;;;;;;;15.75;14.35;;;;;;;1.82;73.23;100984.34;10543456;28;20059;-68
2020/12/18 18:49:33;;;;;;;15.40;13.93;;;;;;;1.87;72.90;100970.63;10543369;28;20123;-67
2020/12/18 18:54:34;;;;;;;15.98;14.43;;;;;;;1.82;72.96;100974.88;10544038;28;20082;-67
2020/12/18 18:59:36;;;;;;;16.52;14.68;;;;;;;1.79;72.99;100971.31;10547860;22;20132;-69
2020/12/18 19:04:38;;;;;;;16.13;14.63;;;;;;;1.76;72.93;100960.03;10468527;28;20069;-69
2020/12/18 19:09:39;;;;;;;16.25;14.57;;;;;;;1.71;73.28;100960.81;10470713;28;20449;-69
2020/12/18 19:14:41;;;;;;;15.52;14.02;;;;;;;1.61;73.29;100952.00;10468646;28;20055;-69
2020/12/18 19:19:42;;;;;;;17.67;15.93;;;;;;;1.69;73.20;100960.78;10432255;28;20494;-68
2020/12/18 19:24:43;;;;;;;16.42;14.63;;;;;;;1.67;73.32;100961.59;10464687;28;20052;-70
2020/12/18 19:29:44;;;;;;;17.70;16.08;;;;;;;1.64;73.61;100952.06;10463412;28;20064;-70
2020/12/18 19:34:46;;;;;;;16.88;15.48;;;;;;;1.66;73.30;100952.06;10464795;28;20044;-69
2020/12/18 19:39:47;;;;;;;17.80;15.88;;;;;;;1.58;73.82;100954.50;10464214;28;20041;-70
2020/12/18 19:44:48;;;;;;;16.35;14.65;;;;;;;1.61;73.29;100946.81;10463612;28;20052;-71
2020/12/18 19:49:49;;;;;;;17.83;16.23;;;;;;;1.52;73.61;100944.91;10463714;28;20131;-70
2020/12/18 19:54:51;;;;;;;16.45;15.00;;;;;;;1.64;74.02;100951.16;10462606;28;20056;-68
2020/12/18 20:00:12;;;;;;;18.30;14.25;;;;;;;1.52;73.58;100937.13;10447560;28;20457;-69
2020/12/18 20:05:17;;;;;;;16.45;14.63;;;;;;;1.48;73.82;100924.97;10448567;28;20135;-70
2020/12/18 20:10:27;;;;;;;14.57;13.00;;;;;;;1.46;73.45;100937.03;10463408;28;20083;-70
2020/12/18 20:15:30;;;;;;;15.45;13.82;;;;;;;1.47;73.65;100930.13;10463963;28;20175;-69
2020/12/18 20:20:31;;;;;;;14.70;13.27;;;;;;;1.43;73.31;100931.78;10475532;28;20029;-69
2020/12/18 20:25:32;;;;;;;15.25;13.77;;;;;;;1.39;73.84;100934.28;10463126;28;20103;-70
2020/12/18 20:30:34;;;;;;;17.73;13.57;;;;;;;1.40;73.86;100944.66;10444727;28;20092;-67
2020/12/18 20:35:35;;;;;;;13.55;12.27;;;;;;;1.44;73.47;100927.47;10463831;28;20040;-70
2020/12/18 20:40:41;;;;;;;14.13;12.85;;;;;;;1.41;73.46;100927.41;10464736;28;20053;-68
2020/12/18 20:45:43;;;;;;;14.57;13.07;;;;;;;1.38;73.67;100928.22;10464072;28;20056;-69
2020/12/18 20:50:44;;;;;;;14.80;12.38;;;;;;;1.32;73.73;100930.69;10444459;28;20064;-69
2020/12/18 20:55:45;;;;;;;14.32;12.82;;;;;;;1.42;73.67;100922.25;10442907;28;20080;-70
2020/12/18 21:00:47;;;;;;;14.18;12.65;;;;;;;1.30;73.82;100919.44;10459749;28;20053;-69
2020/12/18 21:05:49;;;;;;;20.33;14.90;;;;;;;1.32;74.08;100909.94;10465652;28;20176;-68
2020/12/18 21:10:51;;;;;;;14.00;12.52;;;;;;;1.33;73.86;100909.13;10471836;28;20041;-70
2020/12/18 21:15:53;;;;;;;14.95;13.40;;;;;;;1.26;74.13;100899.50;10455004;28;20040;-68
2020/12/18 21:20:55;;;;;;;13.82;12.43;;;;;;;1.38;73.81;100897.13;10475522;28;20069;-70
2020/12/18 21:25:58;;;;;;;15.27;13.30;;;;;;;1.36;73.66;100898.81;10444572;28;20502;-70
2020/12/18 21:31:00;;;;;;;14.65;13.15;;;;;;;1.25;74.01;100897.75;10474616;28;20444;-70
2020/12/18 21:36:02;;;;;;;12.77;11.55;;;;;;;1.34;73.75;100897.06;10477065;28;20461;-69
2020/12/18 21:41:03;;;;;;;13.90;12.00;;;;;;;1.35;73.87;100891.91;10470898;28;20045;-70
2020/12/18 21:46:04;;;;;;;13.93;12.48;;;;;;;1.34;73.89;100886.69;10470711;28;20105;-69
2020/12/18 21:51:07;;;;;;;16.52;12.18;;;;;;;1.32;73.72;100881.47;10472074;28;20087;-71
2020/12/18 21:56:10;;;;;;;13.73;12.32;;;;;;;1.39;73.95;100877.28;10470653;28;20494;-70
2020/12/18 22:01:14;;;;;;;13.23;11.95;;;;;;;1.35;74.09;100878.06;10469757;28;20037;-70
2020/12/18 22:06:15;;;;;;;12.05;10.82;;;;;;;1.25;74.02;100880.50;10469098;28;20048;-69
2020/12/18 22:11:16;;;;;;;14.50;11.80;;;;;;;1.20;74.17;100883.84;10470298;28;20044;-70
2020/12/18 22:16:17;;;;;;;11.23;10.02;;;;;;;1.11;74.15;100878.47;10449188;28;20048;-69
2020/12/18 22:21:19;;;;;;;13.88;11.35;;;;;;;1.10;74.32;100871.53;10466870;28;20041;-69
2020/12/18 22:26:20;;;;;;;13.27;11.88;;;;;;;1.24;73.91;100881.34;10468277;28;20107;-69
2020/12/18 22:31:22;;;;;;;15.13;12.73;;;;;;;1.18;74.18;100880.31;10469255;28;20107;-70
2020/12/18 22:36:27;;;;;;;14.43;13.10;;;;;;;1.21;74.50;100875.22;10469083;28;20041;-70
2020/12/18 22:41:28;;;;;;;14.38;12.45;;;;;;;1.00;74.57;100873.94;10469582;28;20458;-69
2020/12/18 22:46:29;;;;;;;15.20;12.80;;;;;;;1.16;74.71;100876.84;10469127;28;20065;-70
2020/12/18 22:51:34;;;;;;;15.38;13.40;;;;;;;1.22;74.97;100866.59;10448949;28;20138;-68
2020/12/18 22:56:35;;;;;;;14.93;13.32;;;;;;;1.17;75.15;100863.06;10468011;28;20106;-70
2020/12/18 23:01:37;;;;;;;14.27;12.88;;;;;;;1.27;74.63;100859.78;10468427;28;20049;-71
2020/12/18 23:06:38;;;;;;;15.48;13.73;;;;;;;1.45;74.33;100854.06;10467072;28;20127;-69